Time;durP1;ratioP1;P1;durP2;ratioP2;P2;SDS_P1;SDS_P2;PMS_P1;PMS_P2;Temp;Humidity;BMP_temperature;BMP_pressure;BME280_temperature;BME280_humidity;BME280_pressure;Samples;Min_cycle;Max_cycle;Signal;HPM_P1;HPM_P2
2023/10/30 00:02:00;;;;;;;2.07;1.70;;;11.80;99.90;;;;;;5084309;28;20674;-74
2023/10/30 00:04:27;;;;;;;1.57;1.47;;;11.70;99.90;;;;;;5087787;28;20626;-74
2023/10/30 00:06:53;;;;;;;1.93;1.83;;;11.80;99.90;;;;;;5085742;28;20631;-74
2023/10/30 00:09:20;;;;;;;1.70;1.60;;;11.80;99.90;;;;;;5100207;28;20728;-74
2023/10/30 00:11:49;;;;;;;1.43;1.10;;;11.80;99.90;;;;;;5088731;28;20625;-74
2023/10/30 00:14:16;;;;;;;2.43;2.23;;;11.80;99.90;;;;;;5083109;28;20832;-74
2023/10/30 00:16:43;;;;;;;1.47;1.37;;;11.80;99.90;;;;;;5088128;28;20622;-74
2023/10/30 00:19:11;;;;;;;1.83;1.57;;;11.90;99.90;;;;;;5085465;28;20664;-74
2023/10/30 00:21:38;;;;;;;1.73;1.63;;;11.80;99.90;;;;;;5091217;28;20628;-74
2023/10/30 00:24:05;;;;;;;3.33;1.80;;;11.80;99.90;;;;;;5088271;28;20625;-74
2023/10/30 00:26:32;;;;;;;1.57;1.47;;;11.90;99.90;;;;;;5087775;28;20736;-74
2023/10/30 00:28:58;;;;;;;2.20;2.00;;;11.90;99.90;;;;;;5087486;28;20656;-74
2023/10/30 00:31:25;;;;;;;2.30;2.03;;;11.90;99.90;;;;;;5091305;28;20615;-74
2023/10/30 00:33:53;;;;;;;3.37;2.20;;;11.90;99.90;;;;;;5092752;28;20614;-74
2023/10/30 00:36:21;;;;;;;1.90;1.80;;;11.90;99.90;;;;;;5086056;28;21284;-74
2023/10/30 00:38:48;;;;;;;3.20;2.80;;;11.90;99.90;;;;;;5091438;28;20669;-74
2023/10/30 00:41:14;;;;;;;5.70;3.50;;;11.80;99.90;;;;;;5091825;28;20623;-74
2023/10/30 00:43:43;;;;;;;5.53;3.37;;;11.80;99.90;;;;;;5090773;28;20618;-74
2023/10/30 00:46:12;;;;;;;4.53;3.07;;;11.90;99.90;;;;;;5084718;28;20617;-74
2023/10/30 00:48:39;;;;;;;2.23;2.03;;;11.80;99.90;;;;;;5085604;28;20620;-74
2023/10/30 00:51:06;;;;;;;3.77;2.40;;;11.80;99.90;;;;;;5084290;28;20642;-74
2023/10/30 00:53:36;;;;;;;2.50;1.70;;;11.70;99.90;;;;;;5086963;28;21034;-75
2023/10/30 00:56:03;;;;;;;3.43;2.47;;;11.80;99.90;;;;;;5087268;28;20628;-75
2023/10/30 00:58:30;;;;;;;3.47;2.40;;;11.90;99.90;;;;;;5086051;28;20671;-75
2023/10/30 01:00:57;;;;;;;2.17;1.80;;;11.70;99.90;;;;;;5085778;28;20735;-75
2023/10/30 01:03:24;;;;;;;2.23;2.03;;;11.80;99.90;;;;;;5084847;28;20617;-75
2023/10/30 01:05:57;;;;;;;1.70;1.60;;;11.80;99.90;;;;;;5089644;28;21184;-75
2023/10/30 01:08:23;;;;;;;1.90;1.50;;;11.70;99.90;;;;;;5087548;28;20628;-75
2023/10/30 01:10:52;;;;;;;1.87;1.77;;;11.70;99.90;;;;;;5086493;28;20621;-75
2023/10/30 01:13:19;;;;;;;2.23;1.47;;;11.80;99.90;;;;;;5087601;28;20656;-76
2023/10/30 01:15:46;;;;;;;1.43;1.33;;;11.80;99.90;;;;;;5085094;28;20628;-75
2023/10/30 01:18:13;;;;;;;2.70;2.03;;;11.70;99.90;;;;;;5085854;28;20672;-75
2023/10/30 01:20:40;;;;;;;2.50;1.97;;;11.70;99.90;;;;;;5086958;28;21212;-75
2023/10/30 01:23:07;;;;;;;2.17;1.97;;;11.70;99.90;;;;;;5086358;28;20629;-75
2023/10/30 01:25:34;;;;;;;1.70;1.60;;;11.70;99.90;;;;;;5085207;28;21212;-75
2023/10/30 01:28:02;;;;;;;1.77;1.67;;;11.70;99.90;;;;;;5087025;28;20659;-75
2023/10/30 01:30:29;;;;;;;1.73;1.60;;;11.70;99.90;;;;;;5087453;28;21059;-75
2023/10/30 01:32:55;;;;;;;2.87;1.70;;;11.80;99.90;;;;;;5086324;28;20993;-75
2023/10/30 01:35:22;;;;;;;2.20;2.00;;;11.90;99.90;;;;;;5085665;28;21216;-75
2023/10/30 01:37:49;;;;;;;2.03;1.80;;;11.90;99.90;;;;;;5085947;28;20719;-75
2023/10/30 01:40:16;;;;;;;2.80;1.90;;;12.00;99.90;;;;;;5085981;28;20952;-75
2023/10/30 01:42:42;;;;;;;2.53;1.80;;;12.00;99.90;;;;;;5086488;28;20642;-75
2023/10/30 01:45:11;;;;;;;1.90;1.70;;;12.10;99.90;;;;;;5085792;28;20621;-75
2023/10/30 01:47:38;;;;;;;2.10;1.80;;;12.00;99.90;;;;;;5085314;28;21062;-75
2023/10/30 01:50:09;;;;;;;2.63;1.40;;;11.90;99.90;;;;;;5087700;28;20637;-75
2023/10/30 01:52:37;;;;;;;4.23;1.73;;;11.90;99.90;;;;;;5078603;28;20629;-74
2023/10/30 01:55:05;;;;;;;1.63;1.53;;;11.90;99.90;;;;;;5094307;28;20631;-75
2023/10/30 01:57:33;;;;;;;1.70;1.60;;;11.90;99.90;;;;;;5084855;28;21282;-74
2023/10/30 02:00:01;;;;;;;1.80;1.70;;;11.90;99.90;;;;;;5089370;28;20662;-74
2023/10/30 02:02:32;;;;;;;1.67;1.57;;;12.00;99.90;;;;;;5078856;28;20996;-75
2023/10/30 02:04:59;;;;;;;1.03;1.03;;;12.00;99.90;;;;;;5088606;28;20743;-74
2023/10/30 02:07:26;;;;;;;2.03;1.60;;;12.00;99.90;;;;;;5086989;28;21225;-75
2023/10/30 02:09:55;;;;;;;2.30;1.73;;;12.00;99.90;;;;;;5087504;28;20714;-75
2023/10/30 02:12:22;;;;;;;1.80;1.70;;;12.20;99.90;;;;;;5081950;28;20626;-75
2023/10/30 02:14:50;;;;;;;1.67;1.50;;;12.20;99.90;;;;;;5088325;28;20645;-75
2023/10/30 02:17:17;;;;;;;2.50;1.47;;;12.10;99.90;;;;;;5090199;28;20653;-74
2023/10/30 02:19:46;;;;;;;1.80;1.70;;;12.10;99.90;;;;;;5085651;28;20739;-75
2023/10/30 02:22:14;;;;;;;1.60;1.50;;;12.10;99.90;;;;;;5086161;28;20994;-75
2023/10/30 02:24:42;;;;;;;1.53;1.30;;;12.10;99.90;;;;;;5084817;28;20714;-75
2023/10/30 02:27:11;;;;;;;1.57;1.37;;;12.10;99.90;;;;;;5090283;28;20632;-75
2023/10/30 02:29:40;;;;;;;1.50;1.33;;;12.00;99.90;;;;;;5091001;28;20647;-74
2023/10/30 02:32:08;;;;;;;1.33;1.23;;;12.00;99.90;;;;;;5079303;28;20621;-74
2023/10/30 02:34:36;;;;;;;2.40;1.97;;;12.00;99.90;;;;;;5085457;28;21236;-74
2023/10/30 02:37:05;;;;;;;1.60;1.40;;;12.00;99.90;;;;;;5085290;28;21391;-74
2023/10/30 02:39:34;;;;;;;1.33;1.20;;;12.10;99.90;;;;;;5090031;28;20865;-75
2023/10/30 02:42:04;;;;;;;2.90;1.60;;;12.10;99.90;;;;;;5098488;28;20624;-75
2023/10/30 02:44:33;;;;;;;2.37;1.10;;;12.10;99.90;;;;;;5090703;28;20731;-74
2023/10/30 02:47:01;;;;;;;1.17;1.07;;;12.10;99.90;;;;;;5091440;28;20629;-74
2023/10/30 02:49:28;;;;;;;1.63;1.20;;;12.10;99.90;;;;;;5088283;28;20641;-74
2023/10/30 02:51:56;;;;;;;0.87;0.87;;;12.20;99.90;;;;;;5095635;28;21271;-74
2023/10/30 02:54:22;;;;;;;0.80;0.80;;;12.10;99.90;;;;;;5095397;28;20703;-74
2023/10/30 02:56:49;;;;;;;1.40;0.87;;;12.10;99.90;;;;;;5092958;28;20721;-74
2023/10/30 02:59:16;;;;;;;1.03;1.00;;;12.00;99.90;;;;;;5088910;28;21274;-74
2023/10/30 03:01:44;;;;;;;0.90;0.90;;;12.10;99.90;;;;;;5088587;28;21183;-74
2023/10/30 03:04:13;;;;;;;0.60;0.60;;;12.10;99.90;;;;;;5087889;28;20988;-74
2023/10/30 03:06:40;;;;;;;0.70;0.70;;;12.00;99.90;;;;;;5090090;28;21122;-74
2023/10/30 03:09:06;;;;;;;0.80;0.80;;;12.00;99.90;;;;;;5088462;28;20958;-74
2023/10/30 03:11:33;;;;;;;1.33;0.97;;;12.10;99.90;;;;;;5088412;28;20990;-74
2023/10/30 03:14:01;;;;;;;1.07;0.80;;;12.10;99.90;;;;;;5096063;28;20991;-74
2023/10/30 03:16:28;;;;;;;0.77;0.77;;;12.00;99.90;;;;;;5087704;28;21353;-74
2023/10/30 03:18:58;;;;;;;0.93;0.90;;;12.00;99.90;;;;;;5088751;28;20768;-75
2023/10/30 03:21:26;;;;;;;0.80;0.80;;;11.90;99.90;;;;;;5093687;28;21213;-75
2023/10/30 03:23:53;;;;;;;1.00;0.90;;;11.80;99.90;;;;;;5091278;28;20627;-75
2023/10/30 03:26:20;;;;;;;1.50;0.50;;;11.80;99.90;;;;;;5087767;28;21169;-75
2023/10/30 03:28:48;;;;;;;1.30;0.87;;;11.90;99.90;;;;;;5088605;28;20624;-75
2023/10/30 03:31:16;;;;;;;0.90;0.90;;;11.90;99.90;;;;;;5087523;28;21452;-75
2023/10/30 03:33:44;;;;;;;0.83;0.80;;;11.90;99.90;;;;;;5087429;28;20628;-75
2023/10/30 03:36:19;;;;;;;0.70;0.70;;;12.00;99.90;;;;;;5087621;28;20625;-74
2023/10/30 03:38:47;;;;;;;0.83;0.83;;;11.90;99.90;;;;;;5087608;28;20784;-74
2023/10/30 03:41:14;;;;;;;1.20;1.10;;;11.90;99.90;;;;;;5091967;28;21018;-74
2023/10/30 03:43:42;;;;;;;1.30;1.10;;;11.90;99.90;;;;;;5087959;28;20632;-74
2023/10/30 03:46:09;;;;;;;1.87;1.40;;;12.00;99.90;;;;;;5090429;28;20714;-74
2023/10/30 03:48:37;;;;;;;1.53;1.10;;;12.10;99.90;;;;;;5089176;28;20629;-74
2023/10/30 03:51:05;;;;;;;1.50;1.40;;;12.00;99.90;;;;;;5086526;28;20732;-74
2023/10/30 03:53:33;;;;;;;0.87;0.87;;;12.10;99.90;;;;;;5085869;28;20618;-74
2023/10/30 03:56:06;;;;;;;1.03;1.03;;;12.00;99.90;;;;;;5088953;28;21150;-74
2023/10/30 03:58:32;;;;;;;1.20;1.13;;;12.00;99.90;;;;;;5087369;28;20658;-74
2023/10/30 04:01:05;;;;;;;0.97;0.97;;;12.00;99.90;;;;;;5093215;28;20628;-75
2023/10/30 04:03:32;;;;;;;2.17;1.53;;;11.90;99.90;;;;;;5087838;28;20635;-74
2023/10/30 04:06:01;;;;;;;1.73;1.53;;;11.90;99.90;;;;;;5086884;28;20682;-74
2023/10/30 04:08:28;;;;;;;1.40;1.30;;;11.90;99.90;;;;;;5085354;28;20618;-74
2023/10/30 04:10:56;;;;;;;3.80;1.83;;;12.00;99.90;;;;;;5081952;28;20677;-75
2023/10/30 04:13:23;;;;;;;2.80;1.07;;;11.90;99.90;;;;;;5085933;28;21257;-75
2023/10/30 04:15:50;;;;;;;1.60;1.30;;;11.90;99.90;;;;;;5086338;28;20648;-75
2023/10/30 04:18:16;;;;;;;1.20;1.20;;;11.90;99.90;;;;;;5086342;28;20615;-75
2023/10/30 04:20:43;;;;;;;1.27;1.17;;;11.80;99.90;;;;;;5087424;28;20703;-75
2023/10/30 04:23:10;;;;;;;0.90;0.90;;;11.80;99.90;;;;;;5088875;28;20716;-76
2023/10/30 04:25:37;;;;;;;0.83;0.83;;;11.80;99.90;;;;;;5091117;28;21053;-75
2023/10/30 04:28:05;;;;;;;1.13;0.87;;;11.80;99.90;;;;;;5087040;28;20621;-74
2023/10/30 04:30:32;;;;;;;1.40;1.30;;;11.70;99.90;;;;;;5086702;28;20635;-75
2023/10/30 04:33:00;;;;;;;1.03;1.00;;;11.70;99.90;;;;;;5086746;28;21196;-75
2023/10/30 04:35:27;;;;;;;6.83;1.10;;;11.60;99.90;;;;;;5092307;28;21374;-75
2023/10/30 04:37:54;;;;;;;1.37;1.27;;;11.80;99.90;;;;;;5077595;28;20617;-75
2023/10/30 04:40:22;;;;;;;1.37;1.17;;;11.80;99.90;;;;;;5086502;28;20661;-75
2023/10/30 04:42:48;;;;;;;0.77;0.77;;;11.70;99.90;;;;;;5089701;28;20626;-74
2023/10/30 04:45:17;;;;;;;1.07;0.90;;;11.70;99.90;;;;;;5086829;28;20629;-74
2023/10/30 04:47:44;;;;;;;0.97;0.97;;;11.60;99.90;;;;;;5085787;28;20740;-74
2023/10/30 04:50:11;;;;;;;1.13;1.00;;;11.50;99.90;;;;;;5094811;28;20617;-74
2023/10/30 04:52:38;;;;;;;0.90;0.90;;;11.40;99.90;;;;;;5090954;28;20610;-74
2023/10/30 04:55:05;;;;;;;1.07;1.00;;;11.30;99.90;;;;;;5087183;28;20626;-74
2023/10/30 04:57:32;;;;;;;1.90;0.73;;;11.30;99.90;;;;;;5085755;28;20621;-74
2023/10/30 04:59:59;;;;;;;1.03;0.80;;;11.30;99.90;;;;;;5086407;28;20663;-74
2023/10/30 05:02:27;;;;;;;1.33;1.20;;;11.30;99.90;;;;;;5087426;28;20613;-74
2023/10/30 05:04:53;;;;;;;1.53;1.43;;;11.40;99.90;;;;;;5085757;28;20625;-74
2023/10/30 05:07:20;;;;;;;2.40;2.10;;;11.50;99.90;;;;;;5087536;28;20939;-74
2023/10/30 05:09:47;;;;;;;2.30;2.20;;;11.60;99.90;;;;;;5088936;28;20756;-74
2023/10/30 05:12:14;;;;;;;3.07;2.10;;;11.50;99.90;;;;;;5089617;28;20613;-74
2023/10/30 05:14:41;;;;;;;2.43;2.23;;;11.40;99.90;;;;;;5086002;28;21181;-74
2023/10/30 05:17:07;;;;;;;3.37;2.50;;;11.40;99.90;;;;;;5086136;28;20963;-73
2023/10/30 05:19:35;;;;;;;3.07;2.20;;;11.40;99.90;;;;;;5089546;28;20693;-74
2023/10/30 05:22:04;;;;;;;4.40;3.97;;;11.40;99.90;;;;;;5086318;28;20643;-74
2023/10/30 05:24:31;;;;;;;2.53;2.33;;;11.40;99.90;;;;;;5091918;28;20639;-74
2023/10/30 05:26:57;;;;;;;3.23;2.93;;;11.40;99.90;;;;;;5085857;28;20749;-74
2023/10/30 05:29:24;;;;;;;2.80;2.50;;;11.30;99.90;;;;;;5086331;28;20644;-75
2023/10/30 05:31:51;;;;;;;3.07;2.80;;;11.30;99.90;;;;;;5086715;28;20723;-73
2023/10/30 05:34:18;;;;;;;4.30;3.53;;;11.20;99.90;;;;;;5086184;28;20628;-76
2023/10/30 05:36:46;;;;;;;4.00;3.60;;;11.20;99.90;;;;;;5092227;28;20719;-73
2023/10/30 05:39:13;;;;;;;4.50;3.87;;;11.20;99.90;;;;;;5085735;28;20977;-73
2023/10/30 05:41:39;;;;;;;3.83;3.20;;;11.20;99.90;;;;;;5087068;28;20728;-73
2023/10/30 05:44:06;;;;;;;4.10;3.70;;;11.10;99.90;;;;;;5092766;28;21090;-74
2023/10/30 05:46:33;;;;;;;4.23;2.90;;;11.00;99.90;;;;;;5077099;28;20644;-74
2023/10/30 05:49:00;;;;;;;3.93;3.60;;;11.00;99.90;;;;;;5084706;28;21166;-74
2023/10/30 05:51:27;;;;;;;2.93;2.60;;;10.90;99.90;;;;;;5085258;28;21174;-74
2023/10/30 05:53:55;;;;;;;3.73;3.40;;;10.90;99.90;;;;;;5087382;28;20974;-74
2023/10/30 05:56:21;;;;;;;5.20;4.00;;;10.80;99.90;;;;;;5084689;28;20779;-73
2023/10/30 05:58:48;;;;;;;4.43;3.57;;;10.90;99.90;;;;;;5084792;28;20627;-74
2023/10/30 06:01:15;;;;;;;4.17;3.87;;;11.00;99.90;;;;;;5084088;28;20661;-74
2023/10/30 06:03:42;;;;;;;3.67;3.37;;;11.10;99.90;;;;;;5084592;28;20621;-74
2023/10/30 06:06:08;;;;;;;6.60;3.67;;;11.00;99.90;;;;;;5090149;28;20626;-75
2023/10/30 06:08:36;;;;;;;5.17;3.90;;;11.00;99.90;;;;;;5085458;28;21012;-75
2023/10/30 06:11:04;;;;;;;6.13;3.70;;;10.90;99.90;;;;;;5087381;28;20715;-75
2023/10/30 06:13:31;;;;;;;3.63;3.33;;;11.00;99.90;;;;;;5086558;28;21181;-75
2023/10/30 06:15:58;;;;;;;5.07;4.40;;;11.00;99.90;;;;;;5090410;28;20620;-75
2023/10/30 06:18:25;;;;;;;4.80;3.63;;;11.00;99.90;;;;;;5092873;28;20635;-75
2023/10/30 06:20:51;;;;;;;4.60;4.10;;;10.90;99.90;;;;;;5091154;28;20682;-75
2023/10/30 06:23:18;;;;;;;4.23;3.70;;;11.00;99.90;;;;;;5093197;28;20712;-75
2023/10/30 06:25:45;;;;;;;4.83;3.97;;;11.00;99.90;;;;;;5094382;28;20617;-75
2023/10/30 06:28:15;;;;;;;4.17;3.57;;;11.10;99.90;;;;;;5087894;28;20664;-75
2023/10/30 06:30:41;;;;;;;4.00;3.60;;;11.10;99.90;;;;;;5089646;28;20624;-76
2023/10/30 06:33:09;;;;;;;4.67;3.90;;;11.10;99.90;;;;;;5089207;28;20624;-76
2023/10/30 06:35:35;;;;;;;5.47;4.93;;;11.00;99.90;;;;;;5087808;28;20625;-76
2023/10/30 06:38:03;;;;;;;4.37;3.97;;;11.00;99.90;;;;;;5086085;28;20633;-75
2023/10/30 06:40:30;;;;;;;5.50;4.20;;;11.00;99.90;;;;;;5087568;28;20661;-76
2023/10/30 06:42:57;;;;;;;5.20;4.17;;;11.00;99.90;;;;;;5086800;28;21193;-76
2023/10/30 06:45:25;;;;;;;5.80;5.20;;;11.00;99.90;;;;;;5087349;28;20992;-80
2023/10/30 06:47:53;;;;;;;3.60;3.30;;;10.90;99.90;;;;;;5086777;28;20709;-76
2023/10/30 06:50:19;;;;;;;5.07;4.10;;;10.90;99.90;;;;;;5081413;28;20637;-74
2023/10/30 06:52:46;;;;;;;4.57;4.17;;;10.90;99.90;;;;;;5087165;28;20625;-77
2023/10/30 06:55:13;;;;;;;5.77;3.90;;;11.10;99.90;;;;;;5089084;28;20613;-79
2023/10/30 06:57:40;;;;;;;4.50;3.90;;;11.10;99.90;;;;;;5093163;28;20751;-78
2023/10/30 07:00:08;;;;;;;5.57;4.30;;;11.10;99.90;;;;;;5088522;28;20660;-77
2023/10/30 07:02:36;;;;;;;4.17;3.83;;;11.10;99.90;;;;;;5082745;28;20668;-79
2023/10/30 07:05:03;;;;;;;4.60;4.10;;;11.20;99.90;;;;;;5082678;28;20981;-77
2023/10/30 07:07:30;;;;;;;5.10;4.70;;;11.30;99.90;;;;;;5092260;28;20731;-78
2023/10/30 07:09:57;;;;;;;5.00;4.63;;;11.30;99.90;;;;;;5088920;28;20625;-79
2023/10/30 07:12:24;;;;;;;4.53;4.10;;;11.40;99.90;;;;;;5096059;28;20614;-78
2023/10/30 07:14:51;;;;;;;5.50;4.53;;;11.50;99.90;;;;;;5098346;28;21085;-77
2023/10/30 07:17:17;;;;;;;4.13;3.73;;;11.40;99.90;;;;;;5080362;28;20724;-77
2023/10/30 07:19:48;;;;;;;5.90;4.73;;;11.40;99.90;;;;;;5086558;28;20637;-77
2023/10/30 07:22:15;;;;;;;4.83;4.33;;;11.40;99.90;;;;;;5093240;28;20659;-77
2023/10/30 07:24:42;;;;;;;4.70;4.20;;;11.40;99.90;;;;;;5091665;28;21340;-77
2023/10/30 07:27:09;;;;;;;4.60;4.13;;;11.40;99.90;;;;;;5095902;28;20723;-77
2023/10/30 07:29:36;;;;;;;5.80;5.23;;;11.40;99.90;;;;;;5092745;28;21181;-77
2023/10/30 07:32:02;;;;;;;5.73;4.80;;;11.50;99.90;;;;;;5091336;28;20628;-77
2023/10/30 07:34:29;;;;;;;4.60;4.20;;;11.50;99.90;;;;;;5090794;28;20629;-76
2023/10/30 07:36:58;;;;;;;4.43;4.03;;;11.50;99.90;;;;;;5085997;28;21273;-76
2023/10/30 07:39:25;;;;;;;4.80;4.40;;;11.60;99.90;;;;;;5087566;28;21028;-75
2023/10/30 07:41:52;;;;;;;7.60;4.40;;;11.60;99.90;;;;;;5091565;28;20655;-76
2023/10/30 07:44:19;;;;;;;5.77;4.53;;;11.70;99.90;;;;;;5086005;28;20657;-76
2023/10/30 07:46:46;;;;;;;4.87;4.47;;;11.70;99.90;;;;;;5091220;28;20620;-76
2023/10/30 07:49:12;;;;;;;4.30;3.90;;;11.70;99.90;;;;;;5087530;28;20655;-76
2023/10/30 07:51:39;;;;;;;4.90;4.03;;;11.80;99.90;;;;;;5086441;28;20767;-76
2023/10/30 07:54:08;;;;;;;5.00;3.90;;;11.80;99.90;;;;;;5087963;28;20666;-76
2023/10/30 07:56:34;;;;;;;4.83;4.43;;;11.90;99.90;;;;;;5091555;28;21356;-76
2023/10/30 07:59:01;;;;;;;4.33;3.90;;;12.00;99.90;;;;;;5080097;28;20635;-74
2023/10/30 08:01:28;;;;;;;4.80;4.30;;;12.00;99.90;;;;;;5087168;28;20668;-74
2023/10/30 08:03:55;;;;;;;4.87;3.70;;;12.00;99.90;;;;;;5086910;28;21195;-73
2023/10/30 08:06:24;;;;;;;5.83;3.60;;;12.10;99.90;;;;;;5094665;28;20646;-75
2023/10/30 08:08:51;;;;;;;5.50;3.70;;;12.10;99.90;;;;;;5086853;28;21093;-74
2023/10/30 08:11:20;;;;;;;5.07;4.03;;;12.20;99.90;;;;;;5087284;28;20656;-74
2023/10/30 08:13:47;;;;;;;4.37;3.67;;;12.30;99.90;;;;;;5093906;28;21189;-74
2023/10/30 08:16:14;;;;;;;8.93;4.13;;;12.30;99.90;;;;;;5088210;28;20625;-74
2023/10/30 08:18:40;;;;;;;4.70;4.27;;;12.30;99.90;;;;;;5085743;28;20954;-74
2023/10/30 08:21:07;;;;;;;4.83;4.43;;;12.50;99.90;;;;;;5086655;28;20664;-73
2023/10/30 08:23:36;;;;;;;3.90;3.50;;;12.60;99.90;;;;;;5086570;28;20631;-73
2023/10/30 08:26:03;;;;;;;3.60;3.30;;;12.60;99.90;;;;;;5086202;28;21084;-73
2023/10/30 08:28:32;;;;;;;3.33;3.03;;;12.70;99.90;;;;;;5085881;28;20982;-73
2023/10/30 08:30:58;;;;;;;5.20;4.70;;;12.80;99.90;;;;;;5089522;28;20975;-73
2023/10/30 08:33:25;;;;;;;4.10;3.70;;;12.90;99.90;;;;;;5088612;28;20629;-73
2023/10/30 08:35:53;;;;;;;3.83;3.43;;;12.80;99.90;;;;;;5086523;28;22844;-73
2023/10/30 08:38:20;;;;;;;4.10;3.70;;;13.00;99.90;;;;;;5087572;28;20728;-73
2023/10/30 08:40:47;;;;;;;4.70;4.27;;;13.00;99.90;;;;;;5086365;28;20669;-74
2023/10/30 08:43:15;;;;;;;4.13;3.57;;;13.00;99.90;;;;;;5087890;28;20625;-73
2023/10/30 08:45:43;;;;;;;4.40;4.00;;;13.10;99.90;;;;;;5085323;28;20718;-73
2023/10/30 08:48:12;;;;;;;4.17;3.77;;;13.20;99.90;;;;;;5090074;28;20626;-73
2023/10/30 08:50:40;;;;;;;5.30;4.00;;;13.30;99.90;;;;;;5080290;28;20986;-73
2023/10/30 08:53:07;;;;;;;3.50;2.70;;;13.40;99.90;;;;;;5085952;28;20740;-73
2023/10/30 08:55:34;;;;;;;4.33;3.93;;;13.40;99.90;;;;;;5088871;28;20633;-73
2023/10/30 08:58:01;;;;;;;4.33;3.53;;;13.50;99.90;;;;;;5078863;28;20627;-73
2023/10/30 09:00:29;;;;;;;3.83;3.50;;;13.50;99.90;;;;;;5086167;28;20690;-73
2023/10/30 09:02:57;;;;;;;4.63;4.17;;;13.60;99.90;;;;;;5061617;28;20637;-73
2023/10/30 09:05:24;;;;;;;3.80;3.43;;;13.60;99.90;;;;;;5079826;28;20959;-73
2023/10/30 09:07:52;;;;;;;3.80;2.90;;;13.80;99.90;;;;;;5086843;28;20728;-74
2023/10/30 09:10:20;;;;;;;3.60;3.13;;;13.70;99.90;;;;;;5085684;28;20762;-73
2023/10/30 09:12:47;;;;;;;3.87;3.47;;;13.70;99.90;;;;;;5085470;28;20683;-73
2023/10/30 09:15:22;;;;;;;3.93;3.30;;;13.70;99.90;;;;;;5084708;28;21273;-74
2023/10/30 09:17:52;;;;;;;3.40;3.10;;;13.70;99.90;;;;;;5084154;28;20978;-73
2023/10/30 09:20:20;;;;;;;3.13;2.83;;;13.80;99.90;;;;;;5086301;28;21065;-73
2023/10/30 09:22:52;;;;;;;5.23;3.30;;;13.80;99.90;;;;;;5087198;28;21354;-74
2023/10/30 09:25:21;;;;;;;4.60;3.33;;;13.80;99.90;;;;;;5087811;28;20620;-74
2023/10/30 09:28:01;;;;;;;2.83;2.63;;;13.80;99.90;;;;;;5085533;28;20974;-74
2023/10/30 09:30:30;;;;;;;3.13;2.87;;;13.90;99.90;;;;;;5090431;28;21031;-74
2023/10/30 09:32:57;;;;;;;3.10;2.87;;;13.90;99.90;;;;;;5084959;28;20662;-74
2023/10/30 09:35:29;;;;;;;2.80;2.60;;;14.00;99.90;;;;;;5086116;28;20621;-74
2023/10/30 09:37:56;;;;;;;3.20;2.77;;;14.10;99.90;;;;;;5085401;28;20626;-74
2023/10/30 09:40:26;;;;;;;3.77;3.47;;;14.10;99.90;;;;;;5087031;28;20726;-74
2023/10/30 09:42:53;;;;;;;2.97;2.63;;;14.00;99.90;;;;;;5090216;28;21131;-73
2023/10/30 09:45:22;;;;;;;3.53;2.63;;;14.10;99.90;;;;;;5090157;28;20617;-73
2023/10/30 09:47:53;;;;;;;2.90;2.70;;;14.10;99.90;;;;;;5084403;28;21065;-73
2023/10/30 09:50:21;;;;;;;2.60;2.40;;;14.10;99.90;;;;;;5089874;28;20725;-72
2023/10/30 09:52:51;;;;;;;3.73;2.87;;;14.10;99.90;;;;;;5092670;28;20729;-73
2023/10/30 09:55:21;;;;;;;2.50;2.30;;;14.10;99.90;;;;;;5085357;28;20626;-73
2023/10/30 09:57:48;;;;;;;2.87;2.63;;;14.20;99.90;;;;;;5084675;28;20639;-72
2023/10/30 10:00:17;;;;;;;2.80;2.60;;;14.20;99.90;;;;;;5083648;28;20978;-72
2023/10/30 10:02:44;;;;;;;2.40;2.20;;;14.20;99.90;;;;;;5084919;28;20686;-72
2023/10/30 10:05:11;;;;;;;2.83;2.40;;;14.20;99.90;;;;;;5084975;28;21190;-73
2023/10/30 10:07:38;;;;;;;3.53;2.97;;;14.20;99.90;;;;;;5088725;28;20628;-72
2023/10/30 10:10:08;;;;;;;3.87;2.73;;;14.30;99.90;;;;;;5102606;28;20625;-73
2023/10/30 10:12:37;;;;;;;2.90;2.57;;;14.20;99.90;;;;;;5092448;28;20621;-72
2023/10/30 10:15:06;;;;;;;4.53;2.70;;;14.20;99.90;;;;;;5085527;28;20637;-72
2023/10/30 10:17:40;;;;;;;2.00;1.90;;;14.20;99.90;;;;;;5081609;28;20633;-72
2023/10/30 10:20:09;;;;;;;2.27;2.10;;;14.20;99.90;;;;;;5085661;28;20621;-73
2023/10/30 10:22:35;;;;;;;3.20;2.90;;;14.20;99.90;;;;;;5087019;28;21255;-73
2023/10/30 10:25:03;;;;;;;3.43;2.33;;;14.30;99.90;;;;;;5086209;28;20625;-73
2023/10/30 10:27:32;;;;;;;2.60;2.30;;;14.30;99.90;;;;;;5089124;28;20962;-73
2023/10/30 10:29:59;;;;;;;3.50;2.70;;;14.40;99.90;;;;;;5089432;28;20627;-72
2023/10/30 10:32:27;;;;;;;4.63;2.30;;;14.40;99.90;;;;;;5093335;28;20626;-73
2023/10/30 10:34:54;;;;;;;2.70;2.40;;;14.50;99.90;;;;;;5087971;28;20618;-72
2023/10/30 10:37:21;;;;;;;2.80;2.60;;;14.50;99.90;;;;;;5084393;28;20628;-73
2023/10/30 10:39:48;;;;;;;2.20;2.00;;;14.60;99.90;;;;;;5090440;28;20641;-73
2023/10/30 10:42:18;;;;;;;2.30;2.10;;;14.60;99.90;;;;;;5094899;28;20669;-73
2023/10/30 10:44:49;;;;;;;3.03;1.70;;;14.70;99.90;;;;;;5093271;28;20642;-73
2023/10/30 10:47:16;;;;;;;2.20;2.00;;;14.70;99.90;;;;;;5089470;28;20616;-73
2023/10/30 10:49:42;;;;;;;2.07;1.67;;;14.70;99.90;;;;;;5090207;28;20627;-72
2023/10/30 10:52:12;;;;;;;2.17;1.97;;;14.70;99.90;;;;;;5092516;28;20634;-73
2023/10/30 10:54:47;;;;;;;2.23;2.07;;;14.70;99.90;;;;;;5092924;28;20638;-72
2023/10/30 10:57:18;;;;;;;2.47;2.27;;;14.70;99.90;;;;;;5088705;28;20977;-72
2023/10/30 10:59:48;;;;;;;1.93;1.77;;;14.80;99.90;;;;;;5102944;28;20641;-72
2023/10/30 11:02:21;;;;;;;1.87;1.77;;;14.80;99.90;;;;;;5086910;28;20729;-72
2023/10/30 11:04:49;;;;;;;2.03;1.83;;;14.70;99.90;;;;;;5088507;28;20686;-72
2023/10/30 11:07:23;;;;;;;2.07;1.90;;;14.70;99.90;;;;;;5087685;28;20643;-73
2023/10/30 11:09:56;;;;;;;2.13;1.57;;;14.70;99.90;;;;;;5088681;28;21166;-73
2023/10/30 11:12:37;;;;;;;2.27;2.07;;;14.80;99.90;;;;;;5090823;28;20638;-72
2023/10/30 11:15:13;;;;;;;1.20;1.10;;;14.80;99.90;;;;;;5085795;28;20747;-72
2023/10/30 11:17:39;;;;;;;11.90;2.00;;;14.80;99.90;;;;;;5080079;28;20627;-73
2023/10/30 11:20:08;;;;;;;1.30;1.30;;;14.80;99.90;;;;;;5091688;28;21003;-73
2023/10/30 11:22:39;;;;;;;2.33;1.30;;;14.80;99.90;;;;;;5094862;28;21024;-74
2023/10/30 11:25:07;;;;;;;0.80;0.80;;;14.90;99.90;;;;;;5094392;28;20746;-74
2023/10/30 11:27:35;;;;;;;1.03;0.93;;;14.90;99.90;;;;;;5086332;28;20636;-73
2023/10/30 11:30:07;;;;;;;2.13;1.57;;;14.80;99.90;;;;;;5090726;28;20634;-73
2023/10/30 11:32:50;;;;;;;1.13;0.73;;;14.80;99.90;;;;;;5085371;28;20658;-73
2023/10/30 11:35:20;;;;;;;1.03;0.70;;;14.80;99.90;;;;;;5094707;28;21042;-73
2023/10/30 11:37:47;;;;;;;1.27;1.10;;;14.80;99.90;;;;;;5095059;28;21253;-74
2023/10/30 11:40:16;;;;;;;1.13;1.07;;;14.80;99.90;;;;;;5090094;28;20688;-73
2023/10/30 11:42:43;;;;;;;0.77;0.77;;;14.80;99.90;;;;;;5084964;28;20698;-74
2023/10/30 11:45:21;;;;;;;1.07;0.97;;;14.80;99.90;;;;;;5098838;28;20628;-74
2023/10/30 11:47:50;;;;;;;0.87;0.87;;;14.80;99.90;;;;;;5088579;28;20632;-73
2023/10/30 11:50:26;;;;;;;0.93;0.87;;;14.80;99.90;;;;;;5088597;28;20619;-74
2023/10/30 11:52:55;;;;;;;3.23;1.50;;;14.80;99.90;;;;;;5086732;28;20626;-74
2023/10/30 11:55:23;;;;;;;1.57;1.00;;;14.80;99.90;;;;;;5092619;28;21105;-72
2023/10/30 11:57:50;;;;;;;0.70;0.70;;;14.80;99.90;;;;;;5091610;28;20631;-72
2023/10/30 12:00:19;;;;;;;1.57;0.80;;;14.80;99.90;;;;;;5093612;28;20627;-74
2023/10/30 12:02:47;;;;;;;0.97;0.97;;;14.80;99.90;;;;;;5092897;28;21075;-73
2023/10/30 12:05:13;;;;;;;2.60;1.33;;;14.70;99.90;;;;;;5089380;28;20639;-72
2023/10/30 12:07:40;;;;;;;1.17;1.07;;;14.70;99.90;;;;;;5095389;28;21272;-73
2023/10/30 12:10:08;;;;;;;1.97;1.23;;;14.80;99.90;;;;;;5093091;28;20618;-73
2023/10/30 12:12:35;;;;;;;1.60;1.50;;;14.80;99.90;;;;;;5092875;28;21131;-72
2023/10/30 12:15:03;;;;;;;1.33;1.23;;;14.80;99.90;;;;;;5086970;28;20731;-72
2023/10/30 12:17:31;;;;;;;3.90;1.40;;;14.90;99.90;;;;;;5083469;28;20716;-72
2023/10/30 12:19:58;;;;;;;3.03;1.30;;;15.00;99.90;;;;;;5096292;28;21195;-72
2023/10/30 12:22:26;;;;;;;1.20;1.07;;;15.10;99.90;;;;;;5090961;28;21538;-72
2023/10/30 12:24:56;;;;;;;1.80;1.40;;;15.10;99.90;;;;;;5086179;28;20616;-73
2023/10/30 12:27:24;;;;;;;2.20;1.23;;;15.20;99.90;;;;;;5090450;28;20632;-73
2023/10/30 12:29:56;;;;;;;1.33;0.90;;;15.20;99.90;;;;;;5097525;28;20635;-72
2023/10/30 12:32:26;;;;;;;1.10;1.00;;;15.20;99.90;;;;;;5089043;28;20642;-72
2023/10/30 12:34:54;;;;;;;0.73;0.73;;;15.30;99.90;;;;;;5090340;28;20738;-72
2023/10/30 12:37:23;;;;;;;0.87;0.80;;;15.30;99.90;;;;;;5087104;28;20628;-72
2023/10/30 12:40:07;;;;;;;0.93;0.80;;;15.30;99.90;;;;;;5088022;28;20640;-74
2023/10/30 12:42:36;;;;;;;0.80;0.80;;;15.20;99.90;;;;;;5089531;28;20668;-73
2023/10/30 12:45:11;;;;;;;2.87;1.23;;;15.20;99.90;;;;;;5086451;28;21186;-73
2023/10/30 12:47:38;;;;;;;1.50;1.17;;;15.20;99.90;;;;;;5080266;28;20615;-73
2023/10/30 12:50:07;;;;;;;1.50;0.97;;;15.20;99.90;;;;;;5090407;28;20642;-72
2023/10/30 12:52:34;;;;;;;0.83;0.80;;;15.20;99.90;;;;;;5091129;28;20656;-72